Time;durP1;ratioP1;P1;durP2;ratioP2;P2;SDS_P1;SDS_P2;PMS_P1;PMS_P2;Temp;Humidity;BMP_temperature;BMP_pressure;BME280_temperature;BME280_humidity;BME280_pressure;Samples;Min_cycle;Max_cycle;Signal;HPM_P1;HPM_P2
2023/01/31 00:00:06;;;;;;;2.90;2.50;;;;;;;;;;4929545;29;20032;-73
2023/01/31 00:02:32;;;;;;;3.78;2.47;;;;;;;;;;4937808;29;20036;-73
2023/01/31 00:04:58;;;;;;;3.58;2.60;;;;;;;;;;4937891;29;20032;-73
2023/01/31 00:07:23;;;;;;;3.85;2.67;;;;;;;;;;4938132;29;20035;-71
2023/01/31 00:09:49;;;;;;;3.88;2.55;;;;;;;;;;4920869;29;20028;-71
2023/01/31 00:12:14;;;;;;;5.03;2.47;;;;;;;;;;4937940;29;20483;-71
2023/01/31 00:14:39;;;;;;;4.32;2.20;;;;;;;;;;4937820;29;20107;-71
2023/01/31 00:17:06;;;;;;;3.47;1.85;;;;;;;;;;4937848;29;20042;-71
2023/01/31 00:19:31;;;;;;;3.13;2.00;;;;;;;;;;4920761;29;20395;-71
2023/01/31 00:22:00;;;;;;;1.98;1.77;;;;;;;;;;4920735;29;20127;-71
2023/01/31 00:24:26;;;;;;;2.35;1.98;;;;;;;;;;4937751;29;20027;-71
2023/01/31 00:26:55;;;;;;;1.70;1.55;;;;;;;;;;4937849;29;20041;-71
2023/01/31 00:29:23;;;;;;;2.08;1.70;;;;;;;;;;4937453;29;20081;-71
2023/01/31 00:31:51;;;;;;;2.30;1.58;;;;;;;;;;4920464;29;20020;-71
2023/01/31 00:34:18;;;;;;;3.05;1.70;;;;;;;;;;4920018;29;20059;-71
2023/01/31 00:36:43;;;;;;;2.22;1.80;;;;;;;;;;4904496;29;20079;-71
2023/01/31 00:39:09;;;;;;;2.80;1.60;;;;;;;;;;4936898;29;20036;-71
2023/01/31 00:41:35;;;;;;;1.60;1.48;;;;;;;;;;4918989;29;20032;-72
2023/01/31 00:44:00;;;;;;;1.50;1.40;;;;;;;;;;4919889;29;20027;-72
2023/01/31 00:46:26;;;;;;;1.77;1.63;;;;;;;;;;4904342;29;20042;-71
2023/01/31 00:48:51;;;;;;;2.03;1.73;;;;;;;;;;4936864;29;20492;-71
2023/01/31 00:51:17;;;;;;;2.78;1.52;;;;;;;;;;4919722;29;20027;-71
2023/01/31 00:53:43;;;;;;;1.77;1.58;;;;;;;;;;4936679;29;20039;-71
2023/01/31 00:56:10;;;;;;;2.45;1.67;;;;;;;;;;4937253;29;20028;-71
2023/01/31 00:58:38;;;;;;;1.67;1.50;;;;;;;;;;4936951;29;20031;-71
2023/01/31 01:01:04;;;;;;;2.03;1.67;;;;;;;;;;4919505;29;20035;-72
2023/01/31 01:03:31;;;;;;;3.50;1.63;;;;;;;;;;4904336;29;20104;-71
2023/01/31 01:05:56;;;;;;;2.35;1.70;;;;;;;;;;4912805;29;20047;-71
2023/01/31 01:08:21;;;;;;;3.83;2.20;;;;;;;;;;4910943;29;20031;-71
2023/01/31 01:10:47;;;;;;;1.88;1.65;;;;;;;;;;4918714;29;20103;-72
2023/01/31 01:13:14;;;;;;;1.60;1.50;;;;;;;;;;4915843;29;20028;-72
2023/01/31 01:15:40;;;;;;;4.47;1.48;;;;;;;;;;4920397;29;20472;-72
2023/01/31 01:18:08;;;;;;;1.65;1.10;;;;;;;;;;4900827;29;20024;-71
2023/01/31 01:20:35;;;;;;;2.35;1.52;;;;;;;;;;4917808;29;20044;-70
2023/01/31 01:23:00;;;;;;;2.53;1.63;;;;;;;;;;4917887;29;20120;-70
2023/01/31 01:25:26;;;;;;;2.53;1.77;;;;;;;;;;4900765;29;20134;-70
2023/01/31 01:27:51;;;;;;;1.88;1.55;;;;;;;;;;4917601;29;20032;-71
2023/01/31 01:30:17;;;;;;;2.78;1.58;;;;;;;;;;4900217;29;20036;-71
2023/01/31 01:32:43;;;;;;;2.72;1.85;;;;;;;;;;4917568;29;20097;-70
2023/01/31 01:35:09;;;;;;;2.75;1.73;;;;;;;;;;4900283;29;20408;-70
2023/01/31 01:37:34;;;;;;;3.88;1.60;;;;;;;;;;4917333;29;20044;-71
2023/01/31 01:39:59;;;;;;;3.47;2.17;;;;;;;;;;4916894;29;20472;-70
2023/01/31 01:42:25;;;;;;;2.53;1.73;;;;;;;;;;4917679;29;20032;-70
2023/01/31 01:44:55;;;;;;;3.95;2.35;;;;;;;;;;4917709;29;20135;-68
2023/01/31 01:47:23;;;;;;;4.38;2.10;;;;;;;;;;4917740;29;20037;-68
2023/01/31 01:49:51;;;;;;;3.13;2.00;;;;;;;;;;4900487;29;20031;-68
2023/01/31 01:52:17;;;;;;;3.90;1.95;;;;;;;;;;4919116;29;20019;-68
2023/01/31 01:54:47;;;;;;;3.83;2.05;;;;;;;;;;4923588;29;20119;-68
2023/01/31 01:57:15;;;;;;;3.45;1.83;;;;;;;;;;4923882;29;20024;-68
2023/01/31 01:59:44;;;;;;;4.63;1.50;;;;;;;;;;4891131;29;20024;-68
2023/01/31 02:02:10;;;;;;;3.88;1.83;;;;;;;;;;4906646;29;20032;-68
2023/01/31 02:04:36;;;;;;;4.63;1.80;;;;;;;;;;4922413;29;20554;-68
2023/01/31 02:07:02;;;;;;;3.38;1.70;;;;;;;;;;4906768;29;20035;-68
2023/01/31 02:09:39;;;;;;;4.30;2.05;;;;;;;;;;4923486;29;20432;-69
2023/01/31 02:12:04;;;;;;;2.88;1.60;;;;;;;;;;4907746;29;20028;-74
2023/01/31 02:14:31;;;;;;;4.45;2.00;;;;;;;;;;4920555;29;20028;-73
2023/01/31 02:16:56;;;;;;;5.43;1.88;;;;;;;;;;4921683;29;20028;-72
2023/01/31 02:19:40;;;;;;;2.58;1.65;;;;;;;;;;4907739;29;20031;-72
2023/01/31 02:22:13;;;;;;;3.58;1.65;;;;;;;;;;4891193;29;20519;-72
2023/01/31 02:24:49;;;;;;;2.85;1.80;;;;;;;;;;4910272;29;20074;-72
2023/01/31 02:27:33;;;;;;;5.25;2.00;;;;;;;;;;4907236;29;20037;-72
2023/01/31 02:30:10;;;;;;;3.90;2.05;;;;;;;;;;4923901;29;20035;-71
2023/01/31 02:32:36;;;;;;;5.60;1.55;;;;;;;;;;4924598;29;20028;-73
2023/01/31 02:35:07;;;;;;;5.32;2.25;;;;;;;;;;4906332;29;20529;-72
2023/01/31 02:37:40;;;;;;;3.40;1.90;;;;;;;;;;4922407;29;20096;-72
2023/01/31 02:40:18;;;;;;;3.78;1.85;;;;;;;;;;4922204;29;20059;-72
2023/01/31 02:42:56;;;;;;;2.88;1.90;;;;;;;;;;4922118;29;20485;-72
2023/01/31 02:45:28;;;;;;;3.58;1.50;;;;;;;;;;4922107;29;20036;-70
2023/01/31 02:48:06;;;;;;;2.70;1.63;;;;;;;;;;4922197;29;20477;-70
2023/01/31 02:50:37;;;;;;;3.13;1.60;;;;;;;;;;4922037;29;20028;-70
2023/01/31 02:53:06;;;;;;;3.75;1.88;;;;;;;;;;4923240;29;20040;-72
2023/01/31 02:58:30;;;;;;;5.18;1.70;;;;;;;;;;4922253;29;20130;-68
2023/01/31 03:00:57;;;;;;;3.78;1.60;;;;;;;;;;4922454;29;20103;-68
2023/01/31 03:03:25;;;;;;;3.38;1.20;;;;;;;;;;4920254;29;20024;-68
2023/01/31 03:06:09;;;;;;;3.38;1.20;;;;;;;;;;4927819;23;20188;-69
2023/01/31 03:08:36;;;;;;;5.30;1.33;;;;;;;;;;4902347;29;20043;-70
2023/01/31 03:11:04;;;;;;;2.97;1.35;;;;;;;;;;4903472;29;20027;-70
2023/01/31 03:13:33;;;;;;;3.05;1.30;;;;;;;;;;4920074;29;20072;-70
2023/01/31 03:18:52;;;;;;;3.88;1.42;;;;;;;;;;4903002;29;20106;-70
2023/01/31 03:21:23;;;;;;;2.78;1.38;;;;;;;;;;4887481;29;20055;-70
2023/01/31 03:23:52;;;;;;;3.88;1.38;;;;;;;;;;4920132;29;20040;-69
2023/01/31 03:26:19;;;;;;;5.38;1.50;;;;;;;;;;4919814;29;20071;-68
2023/01/31 03:28:45;;;;;;;6.90;1.85;;;;;;;;;;4891488;29;20063;-70
2023/01/31 03:31:21;;;;;;;2.22;1.88;;;;;;;;;;4883773;29;20020;-70
2023/01/31 03:33:50;;;;;;;4.03;1.52;;;;;;;;;;4883592;29;20024;-70
2023/01/31 03:36:25;;;;;;;3.78;1.20;;;;;;;;;;4900793;29;20075;-70
2023/01/31 03:39:09;;;;;;;2.88;1.60;;;;;;;;;;4884968;29;20033;-70
2023/01/31 03:41:42;;;;;;;4.00;1.70;;;;;;;;;;4919360;29;20032;-70
2023/01/31 03:44:13;;;;;;;4.85;1.98;;;;;;;;;;4902478;29;20032;-70
2023/01/31 03:46:42;;;;;;;3.85;1.75;;;;;;;;;;4903540;29;20039;-72
2023/01/31 03:49:09;;;;;;;4.30;1.80;;;;;;;;;;4904807;29;20039;-72
2023/01/31 03:51:36;;;;;;;4.72;1.60;;;;;;;;;;4901650;29;20075;-72
2023/01/31 03:54:07;;;;;;;4.13;1.52;;;;;;;;;;4883823;29;20390;-71
2023/01/31 03:56:39;;;;;;;4.97;1.75;;;;;;;;;;4883770;29;20033;-72
2023/01/31 03:59:08;;;;;;;4.00;1.73;;;;;;;;;;4883652;29;20028;-71
2023/01/31 04:01:34;;;;;;;7.68;1.90;;;;;;;;;;4900727;29;20037;-72
2023/01/31 04:04:02;;;;;;;3.40;1.58;;;;;;;;;;4883808;29;20055;-72
2023/01/31 04:06:28;;;;;;;6.45;1.85;;;;;;;;;;4883611;29;20091;-72
2023/01/31 04:08:54;;;;;;;4.13;1.48;;;;;;;;;;4883365;29;20060;-72
2023/01/31 04:11:21;;;;;;;5.68;1.77;;;;;;;;;;4900367;29;20385;-72
2023/01/31 04:13:46;;;;;;;3.85;1.38;;;;;;;;;;4900384;29;20028;-72
2023/01/31 04:16:11;;;;;;;6.80;2.00;;;;;;;;;;4900039;29;20350;-72
2023/01/31 04:18:38;;;;;;;5.95;1.65;;;;;;;;;;4900181;29;20111;-72
2023/01/31 04:21:03;;;;;;;3.90;1.67;;;;;;;;;;4883283;29;20441;-72
2023/01/31 04:23:29;;;;;;;3.85;1.38;;;;;;;;;;4899993;29;20033;-70
2023/01/31 04:25:54;;;;;;;2.92;1.40;;;;;;;;;;4883130;29;20028;-70
2023/01/31 04:28:20;;;;;;;4.95;1.60;;;;;;;;;;4889523;29;20032;-70
2023/01/31 04:30:45;;;;;;;3.97;1.17;;;;;;;;;;4918716;29;20076;-70
2023/01/31 04:33:10;;;;;;;1.92;1.13;;;;;;;;;;4918850;29;20090;-70
2023/01/31 04:35:38;;;;;;;6.05;1.58;;;;;;;;;;4918575;29;20031;-70
2023/01/31 04:38:03;;;;;;;3.00;1.50;;;;;;;;;;4901543;29;20044;-73
2023/01/31 04:40:29;;;;;;;3.95;1.83;;;;;;;;;;4918503;29;20028;-73
2023/01/31 04:42:55;;;;;;;2.58;1.17;;;;;;;;;;4901688;29;20488;-73
2023/01/31 04:45:20;;;;;;;4.00;1.30;;;;;;;;;;4918557;29;20548;-72
2023/01/31 04:47:45;;;;;;;4.75;1.48;;;;;;;;;;4918124;29;20025;-73
2023/01/31 04:50:11;;;;;;;3.40;1.50;;;;;;;;;;4918444;29;20092;-72
2023/01/31 04:52:37;;;;;;;2.30;1.40;;;;;;;;;;4918542;29;20470;-70
2023/01/31 04:55:03;;;;;;;2.60;1.42;;;;;;;;;;4918346;29;20043;-70
2023/01/31 04:57:28;;;;;;;3.47;1.98;;;;;;;;;;4918279;29;20028;-70
2023/01/31 04:59:53;;;;;;;3.10;1.48;;;;;;;;;;4901270;29;20028;-70
2023/01/31 05:02:19;;;;;;;2.08;1.30;;;;;;;;;;4918135;29;20354;-72
2023/01/31 05:04:44;;;;;;;2.80;1.50;;;;;;;;;;4901623;29;20126;-72
2023/01/31 05:07:09;;;;;;;3.05;1.42;;;;;;;;;;4901091;29;20036;-72
2023/01/31 05:09:35;;;;;;;2.90;1.45;;;;;;;;;;4918055;29;20389;-72
2023/01/31 05:12:00;;;;;;;3.90;1.73;;;;;;;;;;4885556;29;20048;-70
2023/01/31 05:14:26;;;;;;;4.15;1.35;;;;;;;;;;4917960;29;20020;-70
2023/01/31 05:16:51;;;;;;;3.20;1.40;;;;;;;;;;4901196;29;20032;-75
2023/01/31 05:19:16;;;;;;;3.45;1.60;;;;;;;;;;4900403;29;20064;-75
2023/01/31 05:21:54;;;;;;;3.10;1.52;;;;;;;;;;4917985;29;20039;-76
2023/01/31 05:24:20;;;;;;;4.40;1.40;;;;;;;;;;4917966;29;20488;-75
2023/01/31 05:26:55;;;;;;;1.35;1.10;;;;;;;;;;4966830;23;20114;-76
2023/01/31 05:29:20;;;;;;;3.88;1.75;;;;;;;;;;4919716;29;20087;-73
2023/01/31 05:31:58;;;;;;;5.57;1.80;;;;;;;;;;4919717;29;20031;-71
2023/01/31 05:34:24;;;;;;;2.67;1.35;;;;;;;;;;4920022;29;20089;-74
2023/01/31 05:36:56;;;;;;;2.22;1.15;;;;;;;;;;4922959;23;20493;-73
2023/01/31 05:39:22;;;;;;;3.20;1.42;;;;;;;;;;4914472;23;20052;-74
2023/01/31 05:41:47;;;;;;;4.60;1.40;;;;;;;;;;4918181;29;20038;-73
2023/01/31 05:44:15;;;;;;;2.63;1.48;;;;;;;;;;4917403;29;20065;-71
2023/01/31 05:46:41;;;;;;;3.05;1.27;;;;;;;;;;4914349;29;20028;-72
2023/01/31 05:49:07;;;;;;;5.20;2.22;;;;;;;;;;4908434;29;20052;-72
2023/01/31 05:51:32;;;;;;;2.97;1.60;;;;;;;;;;4915933;29;20091;-72
2023/01/31 05:53:58;;;;;;;3.92;1.35;;;;;;;;;;4916030;29;20024;-71
2023/01/31 05:56:23;;;;;;;4.97;1.73;;;;;;;;;;4915788;29;20028;-71
2023/01/31 05:58:49;;;;;;;3.40;1.50;;;;;;;;;;4917110;29;20124;-71
2023/01/31 06:01:25;;;;;;;3.20;1.52;;;;;;;;;;4917029;29;20092;-71
2023/01/31 06:03:50;;;;;;;2.00;1.58;;;;;;;;;;4915954;29;20044;-71
2023/01/31 06:06:16;;;;;;;2.50;1.45;;;;;;;;;;4917182;29;20041;-72
2023/01/31 06:08:41;;;;;;;4.28;2.00;;;;;;;;;;4915679;29;20122;-72
2023/01/31 06:11:09;;;;;;;4.90;1.90;;;;;;;;;;4917108;29;20392;-71
2023/01/31 06:13:35;;;;;;;2.72;1.60;;;;;;;;;;4917915;29;20032;-71
2023/01/31 06:16:00;;;;;;;3.17;2.00;;;;;;;;;;4917199;29;20100;-71
2023/01/31 06:18:25;;;;;;;5.30;2.10;;;;;;;;;;4915223;29;20396;-71
2023/01/31 06:20:51;;;;;;;6.57;2.50;;;;;;;;;;4916474;29;20473;-70
2023/01/31 06:23:16;;;;;;;9.02;3.00;;;;;;;;;;4917333;29;20078;-70
2023/01/31 06:25:42;;;;;;;12.00;3.70;;;;;;;;;;4917462;29;20028;-71
2023/01/31 06:28:07;;;;;;;5.03;2.80;;;;;;;;;;4913954;29;20465;-71
2023/01/31 06:30:33;;;;;;;8.55;3.67;;;;;;;;;;4901475;29;20104;-71
2023/01/31 06:32:59;;;;;;;6.40;3.00;;;;;;;;;;4898134;29;20036;-71
2023/01/31 06:35:24;;;;;;;6.68;2.50;;;;;;;;;;4898007;29;20037;-71
2023/01/31 06:37:50;;;;;;;6.40;2.83;;;;;;;;;;4897146;29;20064;-71
2023/01/31 06:40:15;;;;;;;4.55;2.42;;;;;;;;;;4900589;29;20044;-70
2023/01/31 06:42:40;;;;;;;8.45;3.15;;;;;;;;;;4901505;29;20469;-71
2023/01/31 06:45:06;;;;;;;9.15;3.67;;;;;;;;;;4901427;29;20025;-73
2023/01/31 06:47:31;;;;;;;7.57;3.00;;;;;;;;;;4883259;29;20489;-73
2023/01/31 06:49:57;;;;;;;10.82;1.92;;;;;;;;;;4900473;29;20446;-73
2023/01/31 06:52:23;;;;;;;5.15;2.33;;;;;;;;;;4883219;29;20035;-73
2023/01/31 06:54:48;;;;;;;5.70;2.60;;;;;;;;;;4900494;29;20492;-73
2023/01/31 06:57:13;;;;;;;3.67;2.03;;;;;;;;;;4900000;29;20118;-72
2023/01/31 06:59:39;;;;;;;4.78;2.40;;;;;;;;;;4900738;29;20032;-72
2023/01/31 07:02:04;;;;;;;5.07;2.05;;;;;;;;;;4884454;29;20041;-72
2023/01/31 07:04:29;;;;;;;7.85;2.40;;;;;;;;;;4885221;29;20470;-72
2023/01/31 07:06:56;;;;;;;4.45;1.98;;;;;;;;;;4901308;29;20028;-72
2023/01/31 07:09:21;;;;;;;5.57;2.42;;;;;;;;;;4900028;29;20046;-71
2023/01/31 07:11:47;;;;;;;4.68;2.20;;;;;;;;;;4882623;29;20040;-72
2023/01/31 07:14:12;;;;;;;3.90;2.10;;;;;;;;;;4899413;29;20033;-72
2023/01/31 07:16:37;;;;;;;5.28;2.22;;;;;;;;;;4882606;29;20025;-72
2023/01/31 07:19:03;;;;;;;5.07;2.42;;;;;;;;;;4882621;29;20024;-72
2023/01/31 07:21:28;;;;;;;3.75;1.60;;;;;;;;;;4899104;29;20045;-72
2023/01/31 07:23:54;;;;;;;4.65;2.25;;;;;;;;;;4883697;29;20032;-72
2023/01/31 07:26:20;;;;;;;5.32;2.25;;;;;;;;;;4900889;29;20064;-72
2023/01/31 07:28:45;;;;;;;6.60;2.10;;;;;;;;;;4901035;29;20092;-72
2023/01/31 07:31:11;;;;;;;5.57;2.20;;;;;;;;;;4901046;29;20029;-71
2023/01/31 07:33:40;;;;;;;3.55;1.95;;;;;;;;;;4900744;29;20067;-71
2023/01/31 07:36:06;;;;;;;5.65;2.20;;;;;;;;;;4901260;29;20049;-71
2023/01/31 07:38:32;;;;;;;4.60;1.92;;;;;;;;;;4900960;29;20465;-71
2023/01/31 07:41:02;;;;;;;7.00;2.10;;;;;;;;;;4898649;29;20516;-71
2023/01/31 07:43:27;;;;;;;5.37;2.23;;;;;;;;;;4900601;29;20032;-71
2023/01/31 07:45:54;;;;;;;6.38;2.20;;;;;;;;;;4900821;29;20032;-71
2023/01/31 07:48:22;;;;;;;6.20;2.35;;;;;;;;;;4900460;29;20048;-71
2023/01/31 07:50:51;;;;;;;5.45;2.70;;;;;;;;;;4900002;29;20123;-71
2023/01/31 07:53:18;;;;;;;5.03;2.10;;;;;;;;;;4901217;29;20025;-71
2023/01/31 07:55:47;;;;;;;5.30;2.25;;;;;;;;;;4900375;29;20112;-71
2023/01/31 07:58:15;;;;;;;4.90;2.50;;;;;;;;;;4926945;23;20105;-70
2023/01/31 08:03:33;;;;;;;5.18;2.60;;;;;;;;;;4900741;29;20083;-71
2023/01/31 08:06:00;;;;;;;5.18;2.78;;;;;;;;;;4883460;29;20072;-71
2023/01/31 08:08:25;;;;;;;7.13;2.53;;;;;;;;;;4900120;29;20116;-74
2023/01/31 08:10:51;;;;;;;7.00;2.60;;;;;;;;;;4961319;23;20468;-70
2023/01/31 08:13:17;;;;;;;5.43;2.40;;;;;;;;;;4963631;23;20500;-70
2023/01/31 08:15:42;;;;;;;4.65;2.53;;;;;;;;;;4938146;29;20039;-70
2023/01/31 08:18:07;;;;;;;6.65;3.05;;;;;;;;;;4921130;29;20036;-71
2023/01/31 08:20:33;;;;;;;6.00;2.92;;;;;;;;;;4920699;29;20091;-71
2023/01/31 08:22:58;;;;;;;5.80;2.60;;;;;;;;;;4937994;29;20427;-71
2023/01/31 08:25:25;;;;;;;5.10;2.85;;;;;;;;;;4937662;29;20460;-71
2023/01/31 08:27:50;;;;;;;5.32;2.70;;;;;;;;;;4904759;29;20035;-71
2023/01/31 08:30:16;;;;;;;4.85;2.45;;;;;;;;;;4920609;29;20075;-71
2023/01/31 08:32:42;;;;;;;4.45;2.13;;;;;;;;;;4937812;29;20032;-71
2023/01/31 08:35:07;;;;;;;6.15;2.15;;;;;;;;;;4937479;29;20035;-71
2023/01/31 08:37:32;;;;;;;5.60;2.50;;;;;;;;;;4920287;29;20035;-71
2023/01/31 08:39:58;;;;;;;3.92;2.13;;;;;;;;;;4937653;29;20060;-71
2023/01/31 08:42:23;;;;;;;5.32;2.53;;;;;;;;;;4937615;29;20032;-71
2023/01/31 08:44:48;;;;;;;5.70;2.53;;;;;;;;;;4937294;29;20043;-71
2023/01/31 08:47:13;;;;;;;4.90;2.28;;;;;;;;;;4937528;29;20032;-71
2023/01/31 08:49:39;;;;;;;3.72;2.00;;;;;;;;;;4937132;29;20532;-70
2023/01/31 08:52:04;;;;;;;3.60;2.05;;;;;;;;;;4920437;29;20030;-70
2023/01/31 08:54:30;;;;;;;4.18;2.45;;;;;;;;;;4937158;29;20063;-70
2023/01/31 08:56:55;;;;;;;6.05;2.95;;;;;;;;;;4937329;29;20083;-71
2023/01/31 08:59:20;;;;;;;5.35;2.45;;;;;;;;;;4937315;29;20111;-71
2023/01/31 09:01:46;;;;;;;4.03;2.17;;;;;;;;;;4919542;29;20063;-70
2023/01/31 09:04:12;;;;;;;3.95;1.48;;;;;;;;;;4936975;29;20059;-70
2023/01/31 09:06:37;;;;;;;5.00;2.25;;;;;;;;;;4936912;29;20515;-70
2023/01/31 09:09:02;;;;;;;7.47;2.50;;;;;;;;;;4936823;29;20443;-70
2023/01/31 09:11:29;;;;;;;6.03;2.67;;;;;;;;;;4919853;29;20098;-70
2023/01/31 09:13:54;;;;;;;6.47;2.53;;;;;;;;;;4936668;29;20101;-70
2023/01/31 09:16:20;;;;;;;5.20;2.10;;;;;;;;;;4937075;29;20058;-70
2023/01/31 09:18:45;;;;;;;3.65;2.05;;;;;;;;;;4936703;29;20460;-71
2023/01/31 09:21:14;;;;;;;4.65;2.35;;;;;;;;;;4936734;29;20040;-71
2023/01/31 09:23:40;;;;;;;6.10;2.75;;;;;;;;;;4919746;29;20167;-71
2023/01/31 09:26:05;;;;;;;8.15;2.33;;;;;;;;;;4936662;29;20071;-71
2023/01/31 09:28:30;;;;;;;7.50;2.95;;;;;;;;;;4936548;29;20038;-70
2023/01/31 09:31:01;;;;;;;7.45;3.50;;;;;;;;;;4919630;29;20031;-70
2023/01/31 09:33:26;;;;;;;6.80;2.63;;;;;;;;;;4936563;29;20051;-71
2023/01/31 09:35:56;;;;;;;5.82;2.40;;;;;;;;;;4919493;29;20023;-70
2023/01/31 09:38:22;;;;;;;4.85;2.13;;;;;;;;;;4919828;29;20032;-70
2023/01/31 09:40:47;;;;;;;9.50;2.53;;;;;;;;;;4936411;29;20114;-70
2023/01/31 09:43:13;;;;;;;4.72;2.22;;;;;;;;;;4936425;29;20493;-70
2023/01/31 09:45:39;;;;;;;6.68;2.63;;;;;;;;;;4936396;29;20392;-70
2023/01/31 09:48:06;;;;;;;5.95;2.53;;;;;;;;;;4919484;29;20044;-70
2023/01/31 09:50:34;;;;;;;5.05;2.67;;;;;;;;;;4936590;29;20024;-70
2023/01/31 09:53:00;;;;;;;7.05;2.53;;;;;;;;;;4936598;29;20365;-70
2023/01/31 09:55:46;;;;;;;5.40;2.50;;;;;;;;;;4936265;29;20034;-71
2023/01/31 09:58:14;;;;;;;4.80;1.98;;;;;;;;;;4936533;29;20091;-70
2023/01/31 10:00:49;;;;;;;7.00;2.85;;;;;;;;;;4919416;29;20040;-70
2023/01/31 10:03:33;;;;;;;5.97;2.50;;;;;;;;;;4936241;29;20130;-71
2023/01/31 10:06:05;;;;;;;5.10;1.98;;;;;;;;;;4936420;29;20464;-71
2023/01/31 10:08:50;;;;;;;4.03;2.22;;;;;;;;;;4936403;29;20456;-70
2023/01/31 10:11:29;;;;;;;7.10;2.55;;;;;;;;;;4919129;29;20050;-70
2023/01/31 10:14:00;;;;;;;6.05;2.60;;;;;;;;;;4938588;29;20498;-70
2023/01/31 10:16:37;;;;;;;6.38;2.33;;;;;;;;;;4940010;29;20028;-71
2023/01/31 10:19:08;;;;;;;6.45;3.05;;;;;;;;;;4940268;29;20480;-71
2023/01/31 10:21:38;;;;;;;5.95;2.83;;;;;;;;;;4941442;29;20027;-71
2023/01/31 10:24:25;;;;;;;5.88;2.47;;;;;;;;;;4941507;29;20432;-70
2023/01/31 10:26:51;;;;;;;3.88;2.13;;;;;;;;;;4927067;29;20480;-71
2023/01/31 10:29:27;;;;;;;8.48;3.03;;;;;;;;;;4914270;23;20116;-70
2023/01/31 10:31:52;;;;;;;5.35;2.72;;;;;;;;;;4928924;23;20416;-71
2023/01/31 10:34:28;;;;;;;6.13;3.08;;;;;;;;;;4919543;29;20076;-71
2023/01/31 10:36:58;;;;;;;6.68;2.70;;;;;;;;;;4920930;29;20060;-71
2023/01/31 10:39:26;;;;;;;5.10;2.42;;;;;;;;;;4919696;29;20063;-70
2023/01/31 10:42:01;;;;;;;7.05;3.38;;;;;;;;;;4940533;23;20110;-71
2023/01/31 10:44:39;;;;;;;6.25;2.75;;;;;;;;;;4969440;23;20129;-71
2023/01/31 10:47:09;;;;;;;7.03;3.15;;;;;;;;;;4939757;29;20027;-71
2023/01/31 10:49:35;;;;;;;4.47;2.05;;;;;;;;;;4939371;29;20036;-71
2023/01/31 10:52:30;;;;;;;4.88;2.50;;;;;;;;;;4922378;29;20383;-71
2023/01/31 10:55:22;;;;;;;4.45;2.47;;;;;;;;;;4909767;29;20053;-71
2023/01/31 10:57:48;;;;;;;4.60;2.80;;;;;;;;;;4922200;29;20028;-71
2023/01/31 11:00:19;;;;;;;5.68;2.60;;;;;;;;;;4906485;29;20028;-71
2023/01/31 11:02:46;;;;;;;5.70;2.25;;;;;;;;;;4922525;29;20036;-71
2023/01/31 11:05:17;;;;;;;5.72;3.10;;;;;;;;;;4922438;29;20437;-71
2023/01/31 11:07:44;;;;;;;3.38;1.98;;;;;;;;;;4939283;29;20376;-71
2023/01/31 11:10:25;;;;;;;4.80;2.05;;;;;;;;;;4939039;29;20032;-71
2023/01/31 11:12:52;;;;;;;5.00;2.30;;;;;;;;;;4939310;29;20111;-71
2023/01/31 11:15:18;;;;;;;5.22;2.28;;;;;;;;;;4921881;29;20032;-71
2023/01/31 11:17:44;;;;;;;3.53;1.98;;;;;;;;;;4922594;29;20395;-71
2023/01/31 11:20:33;;;;;;;4.85;2.03;;;;;;;;;;4939115;29;20032;-71
2023/01/31 11:23:00;;;;;;;3.83;2.05;;;;;;;;;;4928815;29;20134;-71
2023/01/31 11:25:26;;;;;;;6.70;2.83;;;;;;;;;;4921260;29;20050;-71
2023/01/31 11:27:53;;;;;;;3.83;1.95;;;;;;;;;;4921696;29;20024;-71
2023/01/31 11:30:26;;;;;;;4.15;2.10;;;;;;;;;;4938705;29;20043;-71
2023/01/31 11:32:52;;;;;;;5.65;2.30;;;;;;;;;;4938933;29;20058;-71
2023/01/31 11:35:18;;;;;;;5.00;2.53;;;;;;;;;;4921882;29;20068;-71
2023/01/31 11:37:51;;;;;;;2.90;2.10;;;;;;;;;;4938826;29;20024;-71
2023/01/31 11:40:19;;;;;;;5.57;2.42;;;;;;;;;;4905826;29;20120;-71
2023/01/31 11:42:52;;;;;;;5.30;2.13;;;;;;;;;;4938484;29;20063;-71
2023/01/31 11:45:19;;;;;;;2.17;1.70;;;;;;;;;;4938417;29;20058;-71
2023/01/31 11:47:47;;;;;;;5.20;2.50;;;;;;;;;;4938243;29;20495;-71
2023/01/31 11:50:20;;;;;;;3.88;2.00;;;;;;;;;;4938305;29;20028;-71
2023/01/31 11:52:52;;;;;;;6.90;3.00;;;;;;;;;;4938317;29;20444;-71
2023/01/31 11:55:17;;;;;;;5.35;2.55;;;;;;;;;;4938187;29;20024;-71
2023/01/31 11:57:43;;;;;;;5.78;2.70;;;;;;;;;;4939059;29;20091;-71
2023/01/31 12:00:23;;;;;;;5.57;2.42;;;;;;;;;;4938134;29;20032;-69
2023/01/31 12:02:52;;;;;;;5.30;2.53;;;;;;;;;;4938404;29;20095;-70
2023/01/31 12:05:18;;;;;;;5.55;2.75;;;;;;;;;;4905588;29;20275;-71
2023/01/31 12:07:43;;;;;;;7.20;2.35;;;;;;;;;;4937897;29;20032;-70
2023/01/31 12:10:27;;;;;;;3.67;2.30;;;;;;;;;;4920865;29;20071;-70
2023/01/31 12:12:53;;;;;;;3.92;2.35;;;;;;;;;;4920855;29;20050;-71
2023/01/31 12:15:18;;;;;;;8.73;3.65;;;;;;;;;;4937890;29;20460;-71
2023/01/31 12:17:48;;;;;;;6.47;2.38;;;;;;;;;;4938063;29;20064;-70
2023/01/31 12:20:16;;;;;;;5.15;2.75;;;;;;;;;;4938052;29;20020;-70
2023/01/31 12:22:49;;;;;;;4.60;3.13;;;;;;;;;;4937744;29;20043;-70
2023/01/31 12:25:14;;;;;;;5.30;2.40;;;;;;;;;;4937971;29;20039;-70
2023/01/31 12:27:46;;;;;;;5.63;2.38;;;;;;;;;;4937818;29;20030;-70
2023/01/31 12:30:17;;;;;;;4.72;2.88;;;;;;;;;;4937917;29;20033;-70
2023/01/31 12:32:56;;;;;;;6.63;2.30;;;;;;;;;;4937843;29;20082;-70
2023/01/31 12:35:40;;;;;;;5.03;2.65;;;;;;;;;;4937705;29;20039;-70
2023/01/31 12:38:08;;;;;;;6.38;2.40;;;;;;;;;;4920380;29;20031;-70
2023/01/31 12:40:51;;;;;;;5.15;2.50;;;;;;;;;;4920286;29;20511;-71
2023/01/31 12:43:26;;;;;;;5.88;2.58;;;;;;;;;;4920282;29;20027;-70
2023/01/31 12:45:52;;;;;;;4.22;2.00;;;;;;;;;;4904508;29;20059;-71
2023/01/31 12:48:36;;;;;;;6.28;2.90;;;;;;;;;;4937182;29;20032;-71
2023/01/31 12:51:10;;;;;;;5.85;3.10;;;;;;;;;;4937759;29;20083;-71
2023/01/31 12:53:41;;;;;;;4.90;2.85;;;;;;;;;;4920148;29;20023;-71
2023/01/31 12:56:19;;;;;;;5.78;2.70;;;;;;;;;;4937370;29;20472;-71
2023/01/31 12:59:23;;;;;;;4.40;2.63;;;;;;;;;;4937363;29;20472;-71
2023/01/31 13:02:04;;;;;;;5.85;2.97;;;;;;;;;;4871386;23;20043;-70
2023/01/31 13:04:35;;;;;;;6.10;3.10;;;;;;;;;;4896491;29;20461;-71
2023/01/31 13:07:13;;;;;;;6.38;2.88;;;;;;;;;;4899103;29;20092;-71
2023/01/31 13:09:38;;;;;;;6.70;2.92;;;;;;;;;;4899251;29;20033;-71
2023/01/31 13:12:06;;;;;;;3.97;2.58;;;;;;;;;;4899354;29;20025;-71
2023/01/31 13:14:35;;;;;;;3.83;2.53;;;;;;;;;;4902720;23;20131;-70
2023/01/31 13:17:02;;;;;;;6.70;3.00;;;;;;;;;;4924634;23;20107;-71
2023/01/31 13:19:34;;;;;;;5.57;2.78;;;;;;;;;;4916955;29;20071;-71
2023/01/31 13:22:02;;;;;;;4.80;2.20;;;;;;;;;;4916529;29;20036;-71
2023/01/31 13:24:31;;;;;;;4.88;2.10;;;;;;;;;;4917773;29;20063;-71
2023/01/31 13:27:00;;;;;;;5.78;2.47;;;;;;;;;;4917722;29;20032;-71
2023/01/31 13:29:35;;;;;;;5.15;2.90;;;;;;;;;;4917891;29;20051;-71
2023/01/31 13:32:04;;;;;;;5.18;2.25;;;;;;;;;;4917205;29;20028;-71
2023/01/31 13:34:34;;;;;;;4.57;2.38;;;;;;;;;;4917586;29;20024;-71
2023/01/31 13:37:01;;;;;;;4.88;2.60;;;;;;;;;;4916303;29;20123;-71
2023/01/31 13:39:32;;;;;;;5.18;2.53;;;;;;;;;;4917554;29;20060;-71
2023/01/31 13:41:57;;;;;;;5.28;2.63;;;;;;;;;;4916302;29;20047;-71
2023/01/31 13:44:22;;;;;;;7.13;2.85;;;;;;;;;;4916261;29;20027;-71
2023/01/31 13:46:50;;;;;;;6.00;2.10;;;;;;;;;;4900491;29;20067;-71
2023/01/31 13:49:28;;;;;;;7.00;2.75;;;;;;;;;;4917191;29;20036;-71
2023/01/31 13:51:58;;;;;;;4.13;2.20;;;;;;;;;;4917706;29;20032;-71
2023/01/31 13:54:30;;;;;;;4.53;1.83;;;;;;;;;;4916513;29;20156;-71
2023/01/31 13:56:57;;;;;;;3.65;2.08;;;;;;;;;;4917393;29;20476;-71
2023/01/31 13:59:24;;;;;;;4.63;2.10;;;;;;;;;;4916086;29;20492;-71
2023/01/31 14:01:50;;;;;;;4.35;2.35;;;;;;;;;;4917571;29;20086;-71
2023/01/31 14:04:16;;;;;;;3.35;1.88;;;;;;;;;;4916090;29;20028;-71
2023/01/31 14:06:57;;;;;;;4.10;1.75;;;;;;;;;;4915984;29;20044;-71
2023/01/31 14:09:22;;;;;;;;;;;;;;;;;;4918172;29;20032;-71
2023/01/31 14:11:47;;;;;;;3.75;1.88;;;;;;;;;;4916348;29;19911;-71
2023/01/31 14:14:50;;;;;;;3.50;2.15;;;;;;;;;;4917233;29;20024;-71
2023/01/31 14:17:27;;;;;;;4.78;2.58;;;;;;;;;;4877801;29;20502;-71
2023/01/31 14:19:56;;;;;;;4.80;2.78;;;;;;;;;;4912755;29;20036;-71
2023/01/31 14:22:26;;;;;;;5.60;3.05;;;;;;;;;;4917656;29;20092;-71
2023/01/31 14:24:55;;;;;;;3.78;2.25;;;;;;;;;;4915860;29;20087;-71
2023/01/31 14:27:22;;;;;;;7.82;3.63;;;;;;;;;;4916196;29;20028;-71
2023/01/31 14:29:56;;;;;;;5.15;3.15;;;;;;;;;;4915847;29;20040;-71
2023/01/31 14:32:30;;;;;;;6.03;3.03;;;;;;;;;;4917591;29;20036;-71
2023/01/31 14:34:55;;;;;;;5.88;3.20;;;;;;;;;;4917858;29;20039;-71
2023/01/31 14:37:27;;;;;;;9.20;4.50;;;;;;;;;;4917493;29;20028;-71
2023/01/31 14:40:14;;;;;;;10.13;4.60;;;;;;;;;;4915635;29;20473;-71
2023/01/31 14:42:57;;;;;;;4.88;3.17;;;;;;;;;;4915658;29;20167;-71
2023/01/31 14:45:32;;;;;;;6.93;3.13;;;;;;;;;;4915350;29;20044;-71
2023/01/31 14:48:04;;;;;;;7.07;3.83;;;;;;;;;;4916316;29;20040;-71
2023/01/31 14:50:38;;;;;;;6.22;3.55;;;;;;;;;;4915400;29;20127;-71
2023/01/31 14:53:28;;;;;;;6.60;3.15;;;;;;;;;;4914047;29;20032;-71
2023/01/31 14:56:09;;;;;;;6.93;4.03;;;;;;;;;;4903803;29;20056;-71
2023/01/31 14:58:34;;;;;;;10.27;4.75;;;;;;;;;;4916157;29;20055;-71
2023/01/31 15:01:02;;;;;;;9.15;4.95;;;;;;;;;;4917402;29;20052;-71